Flight Track Log - Related Links

Times and Time Zones

All times are in EDT time to prevent confusion due to time zone crossing. See the N53NW flight status page for this flight to view local times or setup timezone preferences in your user account.

Time Position Orientation Groundspeed Altitude Reporting Facility
EDT Latitude Longitude Course Direction KTS MPH feet Rate Location/Type
Sun 11:39:28 PM 37.6500 -122.4167 38° Northeast 193 222 1,100  Level Northern Cal TRACON
Sun 11:40:22 PM 37.6833 -122.3833 38° Northeast 230 265 3,400 2,983 Climbing Northern Cal TRACON
Sun 11:42:25 PM 37.8142 -122.3542 10° North 241 277 9,900 3,033 Climbing Oakland Center
Sun 11:43:26 PM 37.8861 -122.3497 North 255 293 12,700 2,557 Climbing Oakland Center
Sun 11:44:27 PM 37.9650 -122.3467 North 285 328 15,100 2,361 Climbing Oakland Center
Sun 11:45:28 PM 38.0469 -122.3425 North 297 342 17,500 2,213 Climbing Oakland Center
Sun 11:46:29 PM 38.1333 -122.3375 North 311 358 19,600 2,000 Climbing Oakland Center
Sun 11:47:31 PM 38.2239 -122.3333 North 325 374 21,600 1,967 Climbing Oakland Center
Sun 11:48:31 PM 38.3175 -122.3286 North 336 387 23,600 2,182 Climbing Oakland Center
Sun 11:49:32 PM 38.4319 -122.3222 North 343 395 26,000 2,164 Climbing Oakland Center
Sun 11:50:33 PM 38.5281 -122.3178 North 346 398 28,000 1,770 Climbing Oakland Center
Sun 11:51:34 PM 38.6250 -122.3125 North 349 402 29,600 1,525 Climbing Oakland Center
Sun 11:52:35 PM 38.7219 -122.3081 North 357 411 31,100 1,475 Climbing Oakland Center
Sun 11:53:36 PM 38.8233 -122.3028 North 363 418 32,600 1,377 Climbing Oakland Center
Sun 11:54:37 PM 38.9244 -122.2981 North 362 417 33,900 1,131 Climbing Oakland Center
Sun 11:55:38 PM 39.0281 -122.2931 North 368 423 34,900 992 Climbing Oakland Center
Sun 11:56:38 PM 39.1353 -122.2881 North 378 435 35,900 992 Climbing Oakland Center
Sun 11:57:39 PM 39.2439 -122.2819 North 385 443 36,900 984 Climbing Oakland Center
Sun 11:58:40 PM 39.3528 -122.2747 North 388 447 37,900 984 Climbing Oakland Center
Sun 11:59:41 PM 39.4608 -122.2686 North 389 448 38,900 1,033 Climbing Oakland Center
Mon 12:00:42 AM 39.5858 -122.2644 North 383 441 40,000 541 Climbing Oakland Center
Mon 12:01:43 AM 39.6961 -122.2586 North 390 449 40,000  Level Oakland Center
Mon 12:02:44 AM 39.8092 -122.2522 North 404 465 40,000  Level Oakland Center
Mon 12:03:45 AM 39.9211 -122.2461 North 404 465 40,000  Level Oakland Center
Mon 12:04:46 AM 40.0311 -122.2394 North 400 460 40,000  Level Oakland Center
Mon 12:05:47 AM 40.1492 -122.2406 360° North 405 466 40,000  Level Oakland Center
Mon 12:06:48 AM 40.2503 -122.2442 358° North 409 471 40,000  Level Oakland Center
Mon 12:07:49 AM 40.3867 -122.2525 357° North 411 473 40,000  Level Oakland Center
Mon 12:08:50 AM 40.4994 -122.2608 357° North 410 472 40,000  Level Oakland Center
Mon 12:09:51 AM 40.6136 -122.2658 358° North 413 475 40,000  Level Oakland Center
Mon 12:10:52 AM 40.7283 -122.2711 358° North 412 474 40,000  Level Oakland Center
Mon 12:11:53 AM 40.8422 -122.2778 357° North 410 472 40,000  Level Oakland Center
Mon 12:12:54 AM 40.9561 -122.2847 357° North 409 471 40,000  Level Oakland Center
Mon 12:13:54 AM 41.0694 -122.2908 358° North 410 472 40,000  Level Oakland Center
Mon 12:14:55 AM 41.1828 -122.3017 356° North 409 471 40,000  Level Oakland Center
Mon 12:15:56 AM 41.2961 -122.3078 358° North 410 472 40,000  Level Oakland Center
Mon 12:16:57 AM 41.4178 -122.3114 359° North 406 467 40,000  Level Oakland Center
Mon 12:17:58 AM 41.5311 -122.3197 357° North 407 468 40,000  Level Oakland Center
Mon 12:18:59 AM 41.6447 -122.3281 357° North 408 470 40,000  Level Oakland Center
Mon 12:20:00 AM 41.7600 -122.3353 357° North 411 473 40,000  Level Oakland Center
Mon 12:21:01 AM 41.8742 -122.3428 357° North 409 471 40,000  Level Oakland Center
Mon 12:22:02 AM 41.9894 -122.3497 357° North 410 472 40,000  Level Oakland Center
Mon 12:23:03 AM 42.1036 -122.3569 357° North 405 466 40,000  Level Oakland Center
Mon 12:24:04 AM 42.2183 -122.3633 358° North 409 471 40,000  Level Oakland Center
Mon 12:25:05 AM 42.3317 -122.3697 358° North 406 467 40,000  Level Oakland Center
Mon 12:26:32 AM 42.4922 -122.3792 358° North 406 467 40,000  Level Seattle Center
Mon 12:27:32 AM 42.6042 -122.3856 358° North 402 463 40,000  Level Seattle Center
Mon 12:28:33 AM 42.7181 -122.3922 358° North 407 468 40,000  Level Seattle Center
Mon 12:29:33 AM 42.8483 -122.3994 358° North 407 468 40,000  Level Seattle Center
Mon 12:30:34 AM 42.9614 -122.4069 357° North 407 468 40,000  Level Seattle Center
Mon 12:31:34 AM 43.0747 -122.4133 358° North 410 472 40,000  Level Seattle Center
Mon 12:32:35 AM 43.1869 -122.4225 357° North 405 466 40,000  Level Seattle Center
Mon 12:33:36 AM 43.3008 -122.4278 358° North 409 471 40,000  Level Seattle Center
Mon 12:34:36 AM 43.4139 -122.4356 357° North 409 471 40,000  Level Seattle Center
Mon 12:35:37 AM 43.5275 -122.4419 358° North 409 471 40,000  Level Seattle Center
Mon 12:36:37 AM 43.6400 -122.4497 357° North 408 470 40,000  Level Seattle Center
Mon 12:37:38 AM 43.7544 -122.4572 357° North 411 473 40,000  Level Seattle Center
Mon 12:38:39 AM 43.8678 -122.4639 358° North 411 473 40,000  Level Seattle Center
Mon 12:39:39 AM 43.9803 -122.4722 357° North 409 471 40,000  Level Seattle Center
Mon 12:40:40 AM 44.0933 -122.4800 357° North 409 471 40,000  Level Seattle Center
Mon 12:41:40 AM 44.2069 -122.4872 357° North 410 472 40,000  Level Seattle Center
Mon 12:42:41 AM 44.3206 -122.4950 357° North 412 474 40,000  Level Seattle Center
Mon 12:43:42 AM 44.4567 -122.5044 357° North 411 473 40,000  Level Seattle Center
Mon 12:44:42 AM 44.5700 -122.5117 357° North 411 473 40,000  Level Seattle Center
Mon 12:45:43 AM 44.6836 -122.5189 357° North 410 472 40,000  Level Seattle Center
Mon 12:46:44 AM 44.7983 -122.5269 357° North 412 474 40,000  Level Seattle Center
Mon 12:47:44 AM 44.9031 -122.5344 357° North 411 473 40,000  Level Seattle Center
Mon 12:48:45 AM 45.0158 -122.5419 357° North 410 472 40,000  Level Seattle Center
Mon 12:49:45 AM 45.1303 -122.5494 357° North 414 476 40,000  Level Seattle Center
Mon 12:50:46 AM 45.2464 -122.5581 357° North 418 481 40,000  Level Seattle Center
Mon 12:51:47 AM 45.3600 -122.5647 358° North 412 474 40,000  Level Seattle Center
Mon 12:52:47 AM 45.4742 -122.5722 357° North 414 476 40,000  Level Seattle Center
Mon 12:53:48 AM 45.5886 -122.5808 357° North 413 475 40,000  Level Seattle Center
Mon 12:54:49 AM 45.7261 -122.5897 357° North 415 478 40,000  Level Seattle Center
Mon 12:55:49 AM 45.8383 -122.6125 352° North 410 472 40,000  Level Seattle Center
Mon 12:56:50 AM 45.9497 -122.6408 350° North 409 471 40,000 -1,033 Level Seattle Center
Mon 12:57:51 AM 46.0625 -122.6678 351° North 411 473 37,900 -2,281 Descending Seattle Center
Mon 12:58:51 AM 46.1717 -122.6958 350° North 402 463 35,400 -2,380 Descending Seattle Center
Mon 12:59:52 AM 46.2694 -122.7219 350° North 392 451 33,100 -2,380 Descending Seattle Center
Mon 01:00:52 AM 46.3756 -122.7483 350° North 389 448 30,600 -2,479 Descending Seattle Center
Mon 01:01:53 AM 46.4828 -122.7761 350° North 392 451 28,100 -2,803 Descending Seattle Center
Mon 01:02:54 AM 46.6089 -122.8100 350° North 384 442 24,900 -2,926 Descending Seattle Center
Mon 01:03:54 AM 46.7056 -122.8344 350° North 359 413 22,200 -2,583 Descending Seattle Center
Mon 01:04:06 AM 46.7183 -122.8386 347° North 350 403 21,800 -2,667 Descending Seattle Center
Mon 01:04:48 AM 46.7919 -122.8575 350° North 345 397 19,800 -2,816 Descending Seattle Center
Mon 01:04:55 AM 46.8000 -122.8586 355° North 347 399 19,500 -2,149 Descending Seattle Center
Mon 01:05:55 AM 46.8864 -122.8814 350° North 324 373 17,400 -1,967 Descending Seattle Center
Mon 01:05:56 AM 46.8872 -122.8781 70° East 335 386 17,500 -393 Climbing Seattle Center
Mon 01:06:56 AM 46.9731 -122.8903 354° North 322 371 17,000 -455 Descending Seattle Center
Mon 01:07:02 AM 46.9867 -122.8828 21° North 315 362 17,000 -1,180 Level Seattle Center
Mon 01:07:57 AM 47.0458 -122.8092 40° Northeast 333 383 15,800 -1,448 Descending Seattle Center
Mon 01:08:58 AM 47.1183 -122.7181 41° Northeast 326 375 14,200 -1,537 Descending Seattle Center
Mon 01:09:58 AM 47.1819 -122.6344 42° Northeast 304 350 12,700 -1,488 Descending Seattle Center
Mon 01:10:59 AM 47.2439 -122.5556 41° Northeast 294 338 11,200 -1,488 Descending Seattle Center
Mon 01:11:59 AM 47.3072 -122.4867 36° Northeast 287 330 9,700 -1,475 Descending Seattle Center
Mon 01:12:00 AM 47.3069 -122.4886 258° West 289 333 9,700 -1,475 Level Seattle Center
Mon 01:13:00 AM 47.3886 -122.5139 348° North 299 344 8,200 -1,537 Descending Seattle Center
Mon 01:14:01 AM 47.4611 -122.5450 344° North 265 305 6,600 -1,537 Descending Seattle Center
Mon 01:15:01 AM 47.5328 -122.5606 352° North 259 298 5,100 -1,475 Descending Seattle Center
Mon 01:15:02 AM 47.5339 -122.5608 350° North 258 297 5,100 -1,574 Level Seattle Center
Mon 01:16:02 AM 47.6042 -122.5672 356° North 257 296 3,500 -1,701 Descending Seattle Center
Mon 01:16:09 AM 47.6158 -122.5686 355° North 254 292 3,200 -1,300 Descending Seattle Center
Mon 01:17:02 AM 47.6686 -122.5753 355° North 229 264 2,200 -984 Descending Seattle Center
Mon 01:17:10 AM 47.6792 -122.5733 North 208 239 2,200  Level Seattle Center
Mon 01:18:03 AM 47.7083 -122.5331 43° Northeast 174 200 2,200  Level Seattle Center
Mon 01:18:04 AM 47.7072 -122.5350 230° Southwest 155 178 2,200  Level Seattle Center
Mon 01:19:03 AM 47.6867 -122.4681 114° Southeast 182 209 2,200  Level Seattle Center
Mon 01:19:05 AM 47.6861 -122.4678 161° South 184 212 2,200  Level Seattle Center
Mon 01:20:04 AM 47.6575 -122.4114 127° Southeast 178 205 2,200  Level Seattle Center
Mon 01:20:12 AM 47.6536 -122.4097 164° South 177 204 2,200 -393 Level Seattle Center
Mon 01:21:05 AM 47.6150 -122.3758 149° Southeast 176 203 1,800 -492 Descending Seattle Center
Mon 01:21:13 AM 47.6114 -122.3742 163° South 157 181 1,700 -700 Descending Seattle Center
Mon 01:22:05 AM 47.5858 -122.3497 147° Southeast 125 144 1,100 -667 Descending Seattle Center
Mon 01:22:07 AM 47.5850 -122.3492 156° South 120 138 1,100 -632 Level Seattle Center
Mon 01:23:02 AM 47.5594 -122.3272 150° Southeast 122 140 500 -712 Descending Seattle Center
Mon 01:23:06 AM 47.5558 -122.3253 160° South 123 142 400 -375 Descending Seattle Center
Mon 01:24:06 AM 47.5311 -122.3042 150° Southeast 121 139 100 -300 Descending Seattle Center

Login

Don't have an account? Register now (free) for customized features, flight alerts, and more!